sensor_id;sensor_type;location;lat;lon;timestamp;temperature;humidity
32446;DHT22;18899;50.748;7.102;2024-01-27T00:01:31;4.30;99.90
32446;DHT22;18899;50.748;7.102;2024-01-27T00:03:57;4.30;99.90
32446;DHT22;18899;50.748;7.102;2024-01-27T00:06:23;4.30;99.90
32446;DHT22;18899;50.748;7.102;2024-01-27T00:08:48;4.20;99.90
32446;DHT22;18899;50.748;7.102;2024-01-27T00:11:14;4.20;99.90
32446;DHT22;18899;50.748;7.102;2024-01-27T00:13:39;4.30;99.90
32446;DHT22;18899;50.748;7.102;2024-01-27T00:16:05;4.20;99.90
32446;DHT22;18899;50.748;7.102;2024-01-27T00:18:31;4.20;99.90
32446;DHT22;18899;50.748;7.102;2024-01-27T00:20:56;4.20;99.90
32446;DHT22;18899;50.748;7.102;2024-01-27T00:23:22;4.20;99.90
32446;DHT22;18899;50.748;7.102;2024-01-27T00:25:47;4.30;99.90
32446;DHT22;18899;50.748;7.102;2024-01-27T00:28:13;4.30;99.90
32446;DHT22;18899;50.748;7.102;2024-01-27T00:30:38;4.20;99.90
32446;DHT22;18899;50.748;7.102;2024-01-27T00:33:04;4.20;99.90
32446;DHT22;18899;50.748;7.102;2024-01-27T00:35:30;4.10;99.90
32446;DHT22;18899;50.748;7.102;2024-01-27T00:37:55;4.00;99.90
32446;DHT22;18899;50.748;7.102;2024-01-27T00:40:22;4.10;99.90
32446;DHT22;18899;50.748;7.102;2024-01-27T00:42:48;4.10;99.90
32446;DHT22;18899;50.748;7.102;2024-01-27T00:45:13;4.00;99.90
32446;DHT22;18899;50.748;7.102;2024-01-27T00:47:39;4.10;99.90
32446;DHT22;18899;50.748;7.102;2024-01-27T00:50:04;4.10;99.90
32446;DHT22;18899;50.748;7.102;2024-01-27T00:52:31;4.10;99.90
32446;DHT22;18899;50.748;7.102;2024-01-27T00:54:56;4.10;99.90
32446;DHT22;18899;50.748;7.102;2024-01-27T00:57:22;4.10;99.90
32446;DHT22;18899;50.748;7.102;2024-01-27T00:59:47;4.20;99.90
32446;DHT22;18899;50.748;7.102;2024-01-27T01:02:13;4.10;99.90
32446;DHT22;18899;50.748;7.102;2024-01-27T01:04:38;4.10;99.90
32446;DHT22;18899;50.748;7.102;2024-01-27T01:07:04;4.10;99.90
32446;DHT22;18899;50.748;7.102;2024-01-27T01:09:29;4.00;99.90
32446;DHT22;18899;50.748;7.102;2024-01-27T01:11:55;3.90;99.90
32446;DHT22;18899;50.748;7.102;2024-01-27T01:14:20;3.90;99.90
32446;DHT22;18899;50.748;7.102;2024-01-27T01:16:46;3.80;99.90
32446;DHT22;18899;50.748;7.102;2024-01-27T01:19:11;3.80;99.90
32446;DHT22;18899;50.748;7.102;2024-01-27T01:21:37;3.70;99.90
32446;DHT22;18899;50.748;7.102;2024-01-27T01:24:03;3.70;99.90
32446;DHT22;18899;50.748;7.102;2024-01-27T01:26:28;3.70;99.90
32446;DHT22;18899;50.748;7.102;2024-01-27T01:28:54;3.70;99.90
32446;DHT22;18899;50.748;7.102;2024-01-27T01:31:19;3.70;99.90
32446;DHT22;18899;50.748;7.102;2024-01-27T01:33:45;3.70;99.90
32446;DHT22;18899;50.748;7.102;2024-01-27T01:36:10;3.70;99.90
32446;DHT22;18899;50.748;7.102;2024-01-27T01:38:36;3.70;99.90
32446;DHT22;18899;50.748;7.102;2024-01-27T01:41:02;3.70;99.90
32446;DHT22;18899;50.748;7.102;2024-01-27T01:43:27;3.60;99.90
32446;DHT22;18899;50.748;7.102;2024-01-27T01:45:53;3.60;99.90
32446;DHT22;18899;50.748;7.102;2024-01-27T01:48:20;3.60;99.90
32446;DHT22;18899;50.748;7.102;2024-01-27T01:50:46;3.70;99.90
32446;DHT22;18899;50.748;7.102;2024-01-27T01:53:13;3.70;99.90
32446;DHT22;18899;50.748;7.102;2024-01-27T01:55:39;3.60;99.90
32446;DHT22;18899;50.748;7.102;2024-01-27T01:58:05;3.60;99.90
32446;DHT22;18899;50.748;7.102;2024-01-27T02:00:31;3.50;99.90
32446;DHT22;18899;50.748;7.102;2024-01-27T02:02:57;3.50;99.90
32446;DHT22;18899;50.748;7.102;2024-01-27T02:05:23;3.50;99.90
32446;DHT22;18899;50.748;7.102;2024-01-27T02:07:48;3.50;99.90
32446;DHT22;18899;50.748;7.102;2024-01-27T02:10:15;3.50;99.90
32446;DHT22;18899;50.748;7.102;2024-01-27T02:12:42;3.50;99.90
32446;DHT22;18899;50.748;7.102;2024-01-27T02:15:12;3.40;99.90
32446;DHT22;18899;50.748;7.102;2024-01-27T02:17:41;3.50;99.90
32446;DHT22;18899;50.748;7.102;2024-01-27T02:20:07;3.40;99.90
32446;DHT22;18899;50.748;7.102;2024-01-27T02:22:34;3.50;99.90
32446;DHT22;18899;50.748;7.102;2024-01-27T02:24:59;3.40;99.90
32446;DHT22;18899;50.748;7.102;2024-01-27T02:27:25;3.40;99.90
32446;DHT22;18899;50.748;7.102;2024-01-27T02:29:50;3.40;99.90
32446;DHT22;18899;50.748;7.102;2024-01-27T02:32:16;3.30;99.90
32446;DHT22;18899;50.748;7.102;2024-01-27T02:34:41;3.40;99.90
32446;DHT22;18899;50.748;7.102;2024-01-27T02:37:07;3.40;99.90
32446;DHT22;18899;50.748;7.102;2024-01-27T02:39:32;3.40;99.90
32446;DHT22;18899;50.748;7.102;2024-01-27T02:41:58;3.40;99.90
32446;DHT22;18899;50.748;7.102;2024-01-27T02:44:24;3.40;99.90
32446;DHT22;18899;50.748;7.102;2024-01-27T02:46:49;3.30;99.90
32446;DHT22;18899;50.748;7.102;2024-01-27T02:49:15;3.40;99.90
32446;DHT22;18899;50.748;7.102;2024-01-27T02:51:40;3.40;99.90
32446;DHT22;18899;50.748;7.102;2024-01-27T02:54:06;3.30;99.90
32446;DHT22;18899;50.748;7.102;2024-01-27T02:56:31;3.30;99.90
32446;DHT22;18899;50.748;7.102;2024-01-27T02:58:57;3.30;99.90
32446;DHT22;18899;50.748;7.102;2024-01-27T03:01:22;3.40;99.90
32446;DHT22;18899;50.748;7.102;2024-01-27T03:03:48;3.40;99.90
32446;DHT22;18899;50.748;7.102;2024-01-27T03:06:13;3.30;99.90
32446;DHT22;18899;50.748;7.102;2024-01-27T03:08:39;3.30;99.90
32446;DHT22;18899;50.748;7.102;2024-01-27T03:11:04;3.20;99.90
32446;DHT22;18899;50.748;7.102;2024-01-27T03:13:30;3.30;99.90
32446;DHT22;18899;50.748;7.102;2024-01-27T03:15:55;3.20;99.90
32446;DHT22;18899;50.748;7.102;2024-01-27T03:18:21;3.20;99.90
32446;DHT22;18899;50.748;7.102;2024-01-27T03:20:47;3.20;99.90
32446;DHT22;18899;50.748;7.102;2024-01-27T03:23:12;3.20;99.90
32446;DHT22;18899;50.748;7.102;2024-01-27T03:25:38;3.20;99.90
32446;DHT22;18899;50.748;7.102;2024-01-27T03:28:04;3.30;99.90
32446;DHT22;18899;50.748;7.102;2024-01-27T03:30:29;3.30;99.90
32446;DHT22;18899;50.748;7.102;2024-01-27T03:32:55;3.30;99.90
32446;DHT22;18899;50.748;7.102;2024-01-27T03:35:20;3.40;99.90
32446;DHT22;18899;50.748;7.102;2024-01-27T03:37:46;3.40;99.90
32446;DHT22;18899;50.748;7.102;2024-01-27T03:40:12;3.40;99.90
32446;DHT22;18899;50.748;7.102;2024-01-27T03:42:37;3.40;99.90
32446;DHT22;18899;50.748;7.102;2024-01-27T03:45:03;3.40;99.90
32446;DHT22;18899;50.748;7.102;2024-01-27T03:47:28;3.30;99.90
32446;DHT22;18899;50.748;7.102;2024-01-27T03:49:54;3.40;99.90
32446;DHT22;18899;50.748;7.102;2024-01-27T03:52:20;3.40;99.90
32446;DHT22;18899;50.748;7.102;2024-01-27T03:54:45;3.30;99.90
32446;DHT22;18899;50.748;7.102;2024-01-27T03:57:11;3.30;99.90
32446;DHT22;18899;50.748;7.102;2024-01-27T03:59:36;3.40;99.90
32446;DHT22;18899;50.748;7.102;2024-01-27T04:02:02;3.30;99.90
32446;DHT22;18899;50.748;7.102;2024-01-27T04:04:27;3.40;99.90
32446;DHT22;18899;50.748;7.102;2024-01-27T04:06:53;3.40;99.90
32446;DHT22;18899;50.748;7.102;2024-01-27T04:09:18;3.40;99.90
32446;DHT22;18899;50.748;7.102;2024-01-27T04:11:44;3.50;99.90
32446;DHT22;18899;50.748;7.102;2024-01-27T04:14:09;3.50;99.90
32446;DHT22;18899;50.748;7.102;2024-01-27T04:16:35;3.60;99.90
32446;DHT22;18899;50.748;7.102;2024-01-27T04:19:00;3.50;99.90
32446;DHT22;18899;50.748;7.102;2024-01-27T04:21:26;3.40;99.90
32446;DHT22;18899;50.748;7.102;2024-01-27T04:23:51;3.40;99.90
32446;DHT22;18899;50.748;7.102;2024-01-27T04:26:17;3.30;99.90
32446;DHT22;18899;50.748;7.102;2024-01-27T04:28:42;3.20;99.90
32446;DHT22;18899;50.748;7.102;2024-01-27T04:31:08;3.20;99.90
32446;DHT22;18899;50.748;7.102;2024-01-27T04:33:34;3.20;99.90
32446;DHT22;18899;50.748;7.102;2024-01-27T04:35:59;3.20;99.90
32446;DHT22;18899;50.748;7.102;2024-01-27T04:38:25;3.20;99.90
32446;DHT22;18899;50.748;7.102;2024-01-27T04:40:51;3.20;99.90
32446;DHT22;18899;50.748;7.102;2024-01-27T04:43:18;3.20;99.90
32446;DHT22;18899;50.748;7.102;2024-01-27T04:45:44;3.20;99.90
32446;DHT22;18899;50.748;7.102;2024-01-27T04:48:10;3.30;99.90
32446;DHT22;18899;50.748;7.102;2024-01-27T04:50:35;3.30;99.90
32446;DHT22;18899;50.748;7.102;2024-01-27T04:53:01;3.30;99.90
32446;DHT22;18899;50.748;7.102;2024-01-27T04:55:27;3.30;99.90
32446;DHT22;18899;50.748;7.102;2024-01-27T04:57:53;3.30;99.90
32446;DHT22;18899;50.748;7.102;2024-01-27T05:00:19;3.30;99.90
32446;DHT22;18899;50.748;7.102;2024-01-27T05:02:45;3.30;99.90
32446;DHT22;18899;50.748;7.102;2024-01-27T05:05:11;3.20;99.90
32446;DHT22;18899;50.748;7.102;2024-01-27T05:07:38;3.20;99.90
32446;DHT22;18899;50.748;7.102;2024-01-27T05:10:03;3.20;99.90
32446;DHT22;18899;50.748;7.102;2024-01-27T05:12:29;3.10;99.90
32446;DHT22;18899;50.748;7.102;2024-01-27T05:14:55;3.10;99.90
32446;DHT22;18899;50.748;7.102;2024-01-27T05:17:20;3.00;99.90
32446;DHT22;18899;50.748;7.102;2024-01-27T05:19:46;3.00;99.90
32446;DHT22;18899;50.748;7.102;2024-01-27T05:22:11;3.10;99.90
32446;DHT22;18899;50.748;7.102;2024-01-27T05:24:37;3.00;99.90
32446;DHT22;18899;50.748;7.102;2024-01-27T05:27:03;2.90;99.90
32446;DHT22;18899;50.748;7.102;2024-01-27T05:29:28;2.90;99.90
32446;DHT22;18899;50.748;7.102;2024-01-27T05:31:54;2.80;99.90
32446;DHT22;18899;50.748;7.102;2024-01-27T05:34:19;2.70;99.90
32446;DHT22;18899;50.748;7.102;2024-01-27T05:36:49;2.70;99.90
32446;DHT22;18899;50.748;7.102;2024-01-27T05:39:14;2.70;99.90
32446;DHT22;18899;50.748;7.102;2024-01-27T05:41:40;2.70;99.90
32446;DHT22;18899;50.748;7.102;2024-01-27T05:44:06;2.70;99.90
32446;DHT22;18899;50.748;7.102;2024-01-27T05:46:31;2.70;99.90
32446;DHT22;18899;50.748;7.102;2024-01-27T05:48:57;2.70;99.90
32446;DHT22;18899;50.748;7.102;2024-01-27T05:51:27;2.70;99.90
32446;DHT22;18899;50.748;7.102;2024-01-27T05:53:52;2.70;99.90
32446;DHT22;18899;50.748;7.102;2024-01-27T05:56:18;2.70;99.90
32446;DHT22;18899;50.748;7.102;2024-01-27T05:58:46;2.70;99.90
32446;DHT22;18899;50.748;7.102;2024-01-27T06:01:11;2.70;99.90
32446;DHT22;18899;50.748;7.102;2024-01-27T06:03:37;2.70;99.90
32446;DHT22;18899;50.748;7.102;2024-01-27T06:06:03;2.70;99.90
32446;DHT22;18899;50.748;7.102;2024-01-27T06:08:29;2.70;99.90
32446;DHT22;18899;50.748;7.102;2024-01-27T06:10:54;2.70;99.90
32446;DHT22;18899;50.748;7.102;2024-01-27T06:13:20;2.70;99.90
32446;DHT22;18899;50.748;7.102;2024-01-27T06:15:45;2.70;99.90
32446;DHT22;18899;50.748;7.102;2024-01-27T06:18:11;2.70;99.90
32446;DHT22;18899;50.748;7.102;2024-01-27T06:20:36;2.60;99.90
32446;DHT22;18899;50.748;7.102;2024-01-27T06:23:02;2.70;99.90
32446;DHT22;18899;50.748;7.102;2024-01-27T06:25:27;2.80;99.90
32446;DHT22;18899;50.748;7.102;2024-01-27T06:27:53;2.90;99.90
32446;DHT22;18899;50.748;7.102;2024-01-27T06:30:19;2.90;99.90
32446;DHT22;18899;50.748;7.102;2024-01-27T06:32:44;2.90;99.90
32446;DHT22;18899;50.748;7.102;2024-01-27T06:35:10;2.80;99.90
32446;DHT22;18899;50.748;7.102;2024-01-27T06:37:35;2.70;99.90
32446;DHT22;18899;50.748;7.102;2024-01-27T06:40:01;2.60;99.90
32446;DHT22;18899;50.748;7.102;2024-01-27T06:42:28;2.60;99.90
32446;DHT22;18899;50.748;7.102;2024-01-27T06:44:53;2.50;99.90
32446;DHT22;18899;50.748;7.102;2024-01-27T06:47:19;2.50;99.90
32446;DHT22;18899;50.748;7.102;2024-01-27T06:49:44;2.60;99.90
32446;DHT22;18899;50.748;7.102;2024-01-27T06:52:10;2.60;99.90
32446;DHT22;18899;50.748;7.102;2024-01-27T06:54:37;2.50;99.90
32446;DHT22;18899;50.748;7.102;2024-01-27T06:57:06;2.60;99.90
32446;DHT22;18899;50.748;7.102;2024-01-27T06:59:32;2.70;99.90
32446;DHT22;18899;50.748;7.102;2024-01-27T07:01:57;2.70;99.90
32446;DHT22;18899;50.748;7.102;2024-01-27T07:04:23;2.60;99.90
32446;DHT22;18899;50.748;7.102;2024-01-27T07:06:48;2.70;99.90
32446;DHT22;18899;50.748;7.102;2024-01-27T07:09:14;2.70;99.90
32446;DHT22;18899;50.748;7.102;2024-01-27T07:11:39;2.70;99.90
32446;DHT22;18899;50.748;7.102;2024-01-27T07:14:05;2.70;99.90
32446;DHT22;18899;50.748;7.102;2024-01-27T07:16:32;2.60;99.90
32446;DHT22;18899;50.748;7.102;2024-01-27T07:18:58;2.60;99.90
32446;DHT22;18899;50.748;7.102;2024-01-27T07:21:24;2.70;99.90
32446;DHT22;18899;50.748;7.102;2024-01-27T07:23:49;2.70;99.90
32446;DHT22;18899;50.748;7.102;2024-01-27T07:26:15;2.70;99.90
32446;DHT22;18899;50.748;7.102;2024-01-27T07:28:41;2.70;99.90
32446;DHT22;18899;50.748;7.102;2024-01-27T07:31:07;2.80;99.90
32446;DHT22;18899;50.748;7.102;2024-01-27T07:33:33;2.90;99.90
32446;DHT22;18899;50.748;7.102;2024-01-27T07:35:58;3.00;99.90
32446;DHT22;18899;50.748;7.102;2024-01-27T07:38:24;3.20;99.90
32446;DHT22;18899;50.748;7.102;2024-01-27T07:40:49;3.20;99.90
32446;DHT22;18899;50.748;7.102;2024-01-27T07:43:15;3.20;99.90
32446;DHT22;18899;50.748;7.102;2024-01-27T07:45:40;3.40;99.90
32446;DHT22;18899;50.748;7.102;2024-01-27T07:48:06;3.50;99.90
32446;DHT22;18899;50.748;7.102;2024-01-27T07:50:32;3.70;99.90
32446;DHT22;18899;50.748;7.102;2024-01-27T07:52:58;3.90;99.90
32446;DHT22;18899;50.748;7.102;2024-01-27T07:55:24;4.00;99.90
32446;DHT22;18899;50.748;7.102;2024-01-27T07:57:49;4.10;99.90
32446;DHT22;18899;50.748;7.102;2024-01-27T08:00:15;4.30;99.90
32446;DHT22;18899;50.748;7.102;2024-01-27T08:02:41;4.60;99.90
32446;DHT22;18899;50.748;7.102;2024-01-27T08:05:06;4.70;99.90
32446;DHT22;18899;50.748;7.102;2024-01-27T08:07:32;4.80;99.90
32446;DHT22;18899;50.748;7.102;2024-01-27T08:09:59;4.80;99.90
32446;DHT22;18899;50.748;7.102;2024-01-27T08:12:24;5.20;99.90
32446;DHT22;18899;50.748;7.102;2024-01-27T08:14:50;5.60;99.90
32446;DHT22;18899;50.748;7.102;2024-01-27T08:17:15;5.80;99.90
32446;DHT22;18899;50.748;7.102;2024-01-27T08:19:41;6.00;99.90
32446;DHT22;18899;50.748;7.102;2024-01-27T08:22:06;6.20;99.90
32446;DHT22;18899;50.748;7.102;2024-01-27T08:24:34;6.20;99.90
32446;DHT22;18899;50.748;7.102;2024-01-27T08:27:00;6.00;99.90
32446;DHT22;18899;50.748;7.102;2024-01-27T08:29:26;5.80;99.90
32446;DHT22;18899;50.748;7.102;2024-01-27T08:31:52;5.80;99.90
32446;DHT22;18899;50.748;7.102;2024-01-27T08:34:17;5.90;99.90
32446;DHT22;18899;50.748;7.102;2024-01-27T08:36:43;6.30;99.90
32446;DHT22;18899;50.748;7.102;2024-01-27T08:39:08;6.80;99.90
32446;DHT22;18899;50.748;7.102;2024-01-27T08:41:34;7.30;99.90
32446;DHT22;18899;50.748;7.102;2024-01-27T08:44:00;7.70;99.90
32446;DHT22;18899;50.748;7.102;2024-01-27T08:46:25;8.00;99.90
32446;DHT22;18899;50.748;7.102;2024-01-27T08:48:51;8.40;99.90
32446;DHT22;18899;50.748;7.102;2024-01-27T08:51:16;8.50;99.90
32446;DHT22;18899;50.748;7.102;2024-01-27T08:53:43;8.50;99.90
32446;DHT22;18899;50.748;7.102;2024-01-27T08:56:14;8.60;99.90
32446;DHT22;18899;50.748;7.102;2024-01-27T08:58:40;8.60;99.90
32446;DHT22;18899;50.748;7.102;2024-01-27T09:01:05;9.00;99.90
32446;DHT22;18899;50.748;7.102;2024-01-27T09:03:33;9.20;99.90
32446;DHT22;18899;50.748;7.102;2024-01-27T09:05:59;9.40;99.90
32446;DHT22;18899;50.748;7.102;2024-01-27T09:08:24;9.60;99.90
32446;DHT22;18899;50.748;7.102;2024-01-27T09:10:50;9.20;99.90
32446;DHT22;18899;50.748;7.102;2024-01-27T09:13:16;9.40;99.90
32446;DHT22;18899;50.748;7.102;2024-01-27T09:15:41;9.80;99.90
32446;DHT22;18899;50.748;7.102;2024-01-27T09:18:07;10.10;99.90
32446;DHT22;18899;50.748;7.102;2024-01-27T09:20:32;10.90;99.90
32446;DHT22;18899;50.748;7.102;2024-01-27T09:22:58;12.10;94.30
32446;DHT22;18899;50.748;7.102;2024-01-27T09:25:23;12.80;87.50
32446;DHT22;18899;50.748;7.102;2024-01-27T09:27:50;13.40;81.80
32446;DHT22;18899;50.748;7.102;2024-01-27T09:30:16;13.40;77.40
32446;DHT22;18899;50.748;7.102;2024-01-27T09:32:41;12.70;79.40
32446;DHT22;18899;50.748;7.102;2024-01-27T09:35:07;12.00;82.30
32446;DHT22;18899;50.748;7.102;2024-01-27T09:37:32;11.80;82.10
32446;DHT22;18899;50.748;7.102;2024-01-27T09:39:58;11.60;84.80
32446;DHT22;18899;50.748;7.102;2024-01-27T09:42:26;11.80;86.40
32446;DHT22;18899;50.748;7.102;2024-01-27T09:44:53;12.50;82.00
32446;DHT22;18899;50.748;7.102;2024-01-27T09:47:21;13.00;78.60
32446;DHT22;18899;50.748;7.102;2024-01-27T09:49:48;12.70;80.00
32446;DHT22;18899;50.748;7.102;2024-01-27T09:52:14;12.50;80.10
32446;DHT22;18899;50.748;7.102;2024-01-27T09:54:40;12.30;79.70
32446;DHT22;18899;50.748;7.102;2024-01-27T09:57:08;12.30;80.30
32446;DHT22;18899;50.748;7.102;2024-01-27T09:59:34;12.40;79.90
32446;DHT22;18899;50.748;7.102;2024-01-27T10:02:02;12.30;81.30
32446;DHT22;18899;50.748;7.102;2024-01-27T10:04:29;12.40;80.10
32446;DHT22;18899;50.748;7.102;2024-01-27T10:06:56;12.70;80.50
32446;DHT22;18899;50.748;7.102;2024-01-27T10:09:23;13.40;77.60
32446;DHT22;18899;50.748;7.102;2024-01-27T10:11:49;14.00;73.50
32446;DHT22;18899;50.748;7.102;2024-01-27T10:14:15;14.00;72.80
32446;DHT22;18899;50.748;7.102;2024-01-27T10:16:44;14.60;71.20
32446;DHT22;18899;50.748;7.102;2024-01-27T10:19:17;15.40;67.50
32446;DHT22;18899;50.748;7.102;2024-01-27T10:21:44;16.00;64.10
32446;DHT22;18899;50.748;7.102;2024-01-27T10:24:10;16.60;61.70
32446;DHT22;18899;50.748;7.102;2024-01-27T10:26:36;17.00;59.70
32446;DHT22;18899;50.748;7.102;2024-01-27T10:29:01;16.80;59.80
32446;DHT22;18899;50.748;7.102;2024-01-27T10:31:36;16.30;59.20
32446;DHT22;18899;50.748;7.102;2024-01-27T10:34:02;14.90;63.20
32446;DHT22;18899;50.748;7.102;2024-01-27T10:36:39;13.70;67.30
32446;DHT22;18899;50.748;7.102;2024-01-27T10:39:20;12.50;71.90
32446;DHT22;18899;50.748;7.102;2024-01-27T10:41:46;11.30;77.30
32446;DHT22;18899;50.748;7.102;2024-01-27T10:44:14;10.50;81.30
32446;DHT22;18899;50.748;7.102;2024-01-27T10:46:43;10.10;83.50
32446;DHT22;18899;50.748;7.102;2024-01-27T10:49:12;9.70;87.20
32446;DHT22;18899;50.748;7.102;2024-01-27T10:51:53;9.40;90.40
32446;DHT22;18899;50.748;7.102;2024-01-27T10:54:24;9.20;93.00
32446;DHT22;18899;50.748;7.102;2024-01-27T10:56:53;8.90;97.60
32446;DHT22;18899;50.748;7.102;2024-01-27T10:59:21;8.70;99.90
32446;DHT22;18899;50.748;7.102;2024-01-27T11:01:49;8.70;99.90
32446;DHT22;18899;50.748;7.102;2024-01-27T11:04:21;8.70;99.90
32446;DHT22;18899;50.748;7.102;2024-01-27T11:06:48;8.60;99.90
32446;DHT22;18899;50.748;7.102;2024-01-27T11:09:14;8.60;99.90
32446;DHT22;18899;50.748;7.102;2024-01-27T11:11:42;8.60;99.90
32446;DHT22;18899;50.748;7.102;2024-01-27T11:14:09;8.50;99.90
32446;DHT22;18899;50.748;7.102;2024-01-27T11:16:35;8.30;99.90
32446;DHT22;18899;50.748;7.102;2024-01-27T11:19:00;8.20;99.90
32446;DHT22;18899;50.748;7.102;2024-01-27T11:21:26;8.00;99.90
32446;DHT22;18899;50.748;7.102;2024-01-27T11:23:52;8.00;99.90
32446;DHT22;18899;50.748;7.102;2024-01-27T11:26:20;7.90;99.90
32446;DHT22;18899;50.748;7.102;2024-01-27T11:28:46;8.00;99.90
32446;DHT22;18899;50.748;7.102;2024-01-27T11:31:11;8.00;99.90
32446;DHT22;18899;50.748;7.102;2024-01-27T11:33:44;8.00;99.90
32446;DHT22;18899;50.748;7.102;2024-01-27T11:36:19;8.00;99.90
32446;DHT22;18899;50.748;7.102;2024-01-27T11:38:46;8.00;99.90
32446;DHT22;18899;50.748;7.102;2024-01-27T11:41:11;8.00;99.90
32446;DHT22;18899;50.748;7.102;2024-01-27T11:43:37;8.10;99.90
32446;DHT22;18899;50.748;7.102;2024-01-27T11:46:03;8.20;99.90
32446;DHT22;18899;50.748;7.102;2024-01-27T11:48:28;8.30;99.90
32446;DHT22;18899;50.748;7.102;2024-01-27T11:51:07;8.40;99.90
32446;DHT22;18899;50.748;7.102;2024-01-27T11:53:36;8.40;99.90
32446;DHT22;18899;50.748;7.102;2024-01-27T11:56:02;8.40;99.90
32446;DHT22;18899;50.748;7.102;2024-01-27T11:58:29;8.40;99.90
32446;DHT22;18899;50.748;7.102;2024-01-27T12:00:55;8.50;99.90
32446;DHT22;18899;50.748;7.102;2024-01-27T12:03:21;8.60;99.90
32446;DHT22;18899;50.748;7.102;2024-01-27T12:05:47;8.70;99.90
32446;DHT22;18899;50.748;7.102;2024-01-27T12:08:13;8.70;99.90
32446;DHT22;18899;50.748;7.102;2024-01-27T12:10:38;8.70;99.90
32446;DHT22;18899;50.748;7.102;2024-01-27T12:13:04;8.70;99.90
32446;DHT22;18899;50.748;7.102;2024-01-27T12:15:30;8.70;99.90
32446;DHT22;18899;50.748;7.102;2024-01-27T12:17:55;8.80;99.90
32446;DHT22;18899;50.748;7.102;2024-01-27T12:20:24;8.80;99.90
32446;DHT22;18899;50.748;7.102;2024-01-27T12:23:01;8.80;99.90
32446;DHT22;18899;50.748;7.102;2024-01-27T12:25:27;8.90;99.90
32446;DHT22;18899;50.748;7.102;2024-01-27T12:27:52;8.90;99.90
32446;DHT22;18899;50.748;7.102;2024-01-27T12:30:18;8.90;99.90
32446;DHT22;18899;50.748;7.102;2024-01-27T12:32:43;9.00;99.90
32446;DHT22;18899;50.748;7.102;2024-01-27T12:35:09;9.00;99.90
32446;DHT22;18899;50.748;7.102;2024-01-27T12:37:35;9.00;99.90
32446;DHT22;18899;50.748;7.102;2024-01-27T12:40:01;9.10;99.90
32446;DHT22;18899;50.748;7.102;2024-01-27T12:42:26;9.10;99.90
32446;DHT22;18899;50.748;7.102;2024-01-27T12:44:52;9.10;99.90
32446;DHT22;18899;50.748;7.102;2024-01-27T12:47:18;9.10;99.90
32446;DHT22;18899;50.748;7.102;2024-01-27T12:49:45;9.10;99.90
32446;DHT22;18899;50.748;7.102;2024-01-27T12:52:11;9.20;99.90
32446;DHT22;18899;50.748;7.102;2024-01-27T12:54:36;9.20;99.90
32446;DHT22;18899;50.748;7.102;2024-01-27T12:57:02;9.20;99.90
32446;DHT22;18899;50.748;7.102;2024-01-27T12:59:28;9.30;99.90
32446;DHT22;18899;50.748;7.102;2024-01-27T13:01:54;9.20;99.90
32446;DHT22;18899;50.748;7.102;2024-01-27T13:04:20;9.20;99.90
32446;DHT22;18899;50.748;7.102;2024-01-27T13:06:45;9.30;99.90
32446;DHT22;18899;50.748;7.102;2024-01-27T13:09:11;9.30;99.90
32446;DHT22;18899;50.748;7.102;2024-01-27T13:11:38;9.20;99.90
32446;DHT22;18899;50.748;7.102;2024-01-27T13:14:03;9.20;99.90
32446;DHT22;18899;50.748;7.102;2024-01-27T13:16:30;9.10;99.90
32446;DHT22;18899;50.748;7.102;2024-01-27T13:18:55;9.10;99.90
32446;DHT22;18899;50.748;7.102;2024-01-27T13:21:21;9.20;99.90
32446;DHT22;18899;50.748;7.102;2024-01-27T13:23:46;9.20;99.90
32446;DHT22;18899;50.748;7.102;2024-01-27T13:26:12;9.30;99.90
32446;DHT22;18899;50.748;7.102;2024-01-27T13:28:37;9.30;99.90
32446;DHT22;18899;50.748;7.102;2024-01-27T13:31:03;9.40;99.90
32446;DHT22;18899;50.748;7.102;2024-01-27T13:33:30;9.50;99.90
32446;DHT22;18899;50.748;7.102;2024-01-27T13:35:55;9.50;99.90
32446;DHT22;18899;50.748;7.102;2024-01-27T13:38:21;9.50;99.90
32446;DHT22;18899;50.748;7.102;2024-01-27T13:40:49;9.40;99.90
32446;DHT22;18899;50.748;7.102;2024-01-27T13:43:15;9.30;99.90
32446;DHT22;18899;50.748;7.102;2024-01-27T13:45:41;9.40;99.50
32446;DHT22;18899;50.748;7.102;2024-01-27T13:48:07;9.30;99.90
32446;DHT22;18899;50.748;7.102;2024-01-27T13:50:33;9.20;99.90
32446;DHT22;18899;50.748;7.102;2024-01-27T13:52:59;9.10;99.40
32446;DHT22;18899;50.748;7.102;2024-01-27T13:55:24;9.20;99.20
32446;DHT22;18899;50.748;7.102;2024-01-27T13:57:50;9.10;99.30
32446;DHT22;18899;50.748;7.102;2024-01-27T14:00:16;9.10;99.00
32446;DHT22;18899;50.748;7.102;2024-01-27T14:02:42;9.10;99.90
32446;DHT22;18899;50.748;7.102;2024-01-27T14:05:08;9.30;98.70
32446;DHT22;18899;50.748;7.102;2024-01-27T14:07:34;9.30;98.60
32446;DHT22;18899;50.748;7.102;2024-01-27T14:10:00;9.30;97.50
32446;DHT22;18899;50.748;7.102;2024-01-27T14:12:26;9.40;96.70
32446;DHT22;18899;50.748;7.102;2024-01-27T14:14:51;9.40;96.60
32446;DHT22;18899;50.748;7.102;2024-01-27T14:17:18;9.40;96.60
32446;DHT22;18899;50.748;7.102;2024-01-27T14:19:46;9.40;96.20
32446;DHT22;18899;50.748;7.102;2024-01-27T14:22:11;9.50;94.90
32446;DHT22;18899;50.748;7.102;2024-01-27T14:24:37;9.50;96.10
32446;DHT22;18899;50.748;7.102;2024-01-27T14:27:03;9.50;96.40
32446;DHT22;18899;50.748;7.102;2024-01-27T14:29:30;9.50;96.20
32446;DHT22;18899;50.748;7.102;2024-01-27T14:31:57;9.40;96.20
32446;DHT22;18899;50.748;7.102;2024-01-27T14:34:23;9.50;94.70
32446;DHT22;18899;50.748;7.102;2024-01-27T14:36:48;9.50;94.50
32446;DHT22;18899;50.748;7.102;2024-01-27T14:39:14;9.40;95.60
32446;DHT22;18899;50.748;7.102;2024-01-27T14:41:39;9.50;95.50
32446;DHT22;18899;50.748;7.102;2024-01-27T14:44:05;9.60;95.60
32446;DHT22;18899;50.748;7.102;2024-01-27T14:46:31;9.60;94.50
32446;DHT22;18899;50.748;7.102;2024-01-27T14:48:57;9.50;94.10
32446;DHT22;18899;50.748;7.102;2024-01-27T14:51:23;9.40;93.00
32446;DHT22;18899;50.748;7.102;2024-01-27T14:53:48;9.40;92.90
32446;DHT22;18899;50.748;7.102;2024-01-27T14:56:15;9.30;92.80
32446;DHT22;18899;50.748;7.102;2024-01-27T14:58:40;9.30;92.70
32446;DHT22;18899;50.748;7.102;2024-01-27T15:01:06;9.30;92.70
32446;DHT22;18899;50.748;7.102;2024-01-27T15:03:32;9.20;92.10
32446;DHT22;18899;50.748;7.102;2024-01-27T15:05:58;9.20;92.30
32446;DHT22;18899;50.748;7.102;2024-01-27T15:08:24;9.30;93.10
32446;DHT22;18899;50.748;7.102;2024-01-27T15:10:49;9.30;92.70
32446;DHT22;18899;50.748;7.102;2024-01-27T15:13:15;9.30;92.10
32446;DHT22;18899;50.748;7.102;2024-01-27T15:15:45;9.20;92.80
32446;DHT22;18899;50.748;7.102;2024-01-27T15:18:11;9.00;92.80
32446;DHT22;18899;50.748;7.102;2024-01-27T15:20:37;8.90;93.10
32446;DHT22;18899;50.748;7.102;2024-01-27T15:23:03;8.90;93.60
32446;DHT22;18899;50.748;7.102;2024-01-27T15:25:29;8.80;93.80
32446;DHT22;18899;50.748;7.102;2024-01-27T15:27:56;8.80;93.60
32446;DHT22;18899;50.748;7.102;2024-01-27T15:30:21;8.80;92.90
32446;DHT22;18899;50.748;7.102;2024-01-27T15:32:48;8.80;92.60
32446;DHT22;18899;50.748;7.102;2024-01-27T15:35:14;8.70;93.00
32446;DHT22;18899;50.748;7.102;2024-01-27T15:37:40;8.60;93.50